sensor_id;sensor_type;location;lat;lon;timestamp;temperature;humidity
995;DHT22;486;48.726;8.964;2022-10-04T03:15:54;8.30;99.90
995;DHT22;486;48.726;8.964;2022-10-04T03:18:23;5.80;99.90
995;DHT22;486;48.726;8.964;2022-10-04T03:20:52;5.80;99.90
995;DHT22;486;48.726;8.964;2022-10-04T03:23:21;5.80;99.90
995;DHT22;486;48.726;8.964;2022-10-04T03:25:53;5.70;99.90
995;DHT22;486;48.726;8.964;2022-10-04T03:28:26;5.80;99.90
995;DHT22;486;48.726;8.964;2022-10-04T03:30:59;5.80;99.90
995;DHT22;486;48.726;8.964;2022-10-04T03:33:28;5.80;99.90
995;DHT22;486;48.726;8.964;2022-10-04T03:35:59;5.80;99.90
995;DHT22;486;48.726;8.964;2022-10-04T03:38:31;5.80;99.90
995;DHT22;486;48.726;8.964;2022-10-04T03:41:02;5.70;99.90
995;DHT22;486;48.726;8.964;2022-10-04T03:43:32;5.70;99.90
995;DHT22;486;48.726;8.964;2022-10-04T03:46:09;5.70;99.90
995;DHT22;486;48.726;8.964;2022-10-04T03:48:42;5.70;99.90
995;DHT22;486;48.726;8.964;2022-10-04T03:51:16;5.70;99.90
995;DHT22;486;48.726;8.964;2022-10-04T03:53:49;5.70;99.90
995;DHT22;486;48.726;8.964;2022-10-04T03:56:23;5.80;99.90
995;DHT22;486;48.726;8.964;2022-10-04T03:58:54;5.80;99.90
995;DHT22;486;48.726;8.964;2022-10-04T04:01:34;5.70;99.90
995;DHT22;486;48.726;8.964;2022-10-04T04:04:14;5.80;99.90
995;DHT22;486;48.726;8.964;2022-10-04T04:06:51;5.80;99.90
995;DHT22;486;48.726;8.964;2022-10-04T04:09:38;5.80;99.90
995;DHT22;486;48.726;8.964;2022-10-04T04:12:14;5.80;99.90
995;DHT22;486;48.726;8.964;2022-10-04T04:14:48;5.80;99.90
995;DHT22;486;48.726;8.964;2022-10-04T04:17:39;5.80;99.90
995;DHT22;486;48.726;8.964;2022-10-04T04:20:24;5.80;99.90
995;DHT22;486;48.726;8.964;2022-10-04T04:23:00;5.80;99.90
995;DHT22;486;48.726;8.964;2022-10-04T04:25:38;5.80;99.90
995;DHT22;486;48.726;8.964;2022-10-04T04:28:23;5.80;99.90
995;DHT22;486;48.726;8.964;2022-10-04T04:30:59;5.90;99.90
995;DHT22;486;48.726;8.964;2022-10-04T04:33:42;5.90;99.90
995;DHT22;486;48.726;8.964;2022-10-04T04:36:14;5.90;99.90
995;DHT22;486;48.726;8.964;2022-10-04T04:38:44;5.90;99.90
995;DHT22;486;48.726;8.964;2022-10-04T04:41:28;5.80;99.90
995;DHT22;486;48.726;8.964;2022-10-04T04:43:59;5.80;99.90
995;DHT22;486;48.726;8.964;2022-10-04T04:46:29;5.80;99.90
995;DHT22;486;48.726;8.964;2022-10-04T04:49:03;5.80;99.90
995;DHT22;486;48.726;8.964;2022-10-04T04:51:33;5.70;99.90
995;DHT22;486;48.726;8.964;2022-10-04T04:54:05;5.70;99.90
995;DHT22;486;48.726;8.964;2022-10-04T04:56:34;5.60;99.90
995;DHT22;486;48.726;8.964;2022-10-04T04:59:05;5.60;99.90
995;DHT22;486;48.726;8.964;2022-10-04T05:01:41;5.60;99.90
995;DHT22;486;48.726;8.964;2022-10-04T05:04:20;5.60;99.90
995;DHT22;486;48.726;8.964;2022-10-04T05:07:03;5.50;99.90
995;DHT22;486;48.726;8.964;2022-10-04T05:09:36;5.50;99.90
995;DHT22;486;48.726;8.964;2022-10-04T05:12:10;5.50;99.90
995;DHT22;486;48.726;8.964;2022-10-04T05:14:45;5.50;99.90
995;DHT22;486;48.726;8.964;2022-10-04T05:17:19;6.20;99.90
995;DHT22;486;48.726;8.964;2022-10-04T05:19:54;6.50;99.90
995;DHT22;486;48.726;8.964;2022-10-04T05:22:26;6.50;99.90
995;DHT22;486;48.726;8.964;2022-10-04T05:24:58;6.30;99.90
995;DHT22;486;48.726;8.964;2022-10-04T05:27:30;6.00;99.90
995;DHT22;486;48.726;8.964;2022-10-04T05:30:06;5.90;99.90
995;DHT22;486;48.726;8.964;2022-10-04T05:32:45;5.80;99.90
995;DHT22;486;48.726;8.964;2022-10-04T05:35:21;5.80;99.90
995;DHT22;486;48.726;8.964;2022-10-04T05:37:56;5.90;99.90
995;DHT22;486;48.726;8.964;2022-10-04T05:40:39;6.20;99.90
995;DHT22;486;48.726;8.964;2022-10-04T05:43:28;6.10;99.90
995;DHT22;486;48.726;8.964;2022-10-04T05:46:16;6.00;99.90
995;DHT22;486;48.726;8.964;2022-10-04T05:48:53;6.00;99.90
995;DHT22;486;48.726;8.964;2022-10-04T05:51:27;5.90;99.90
995;DHT22;486;48.726;8.964;2022-10-04T05:54:00;5.90;99.90
995;DHT22;486;48.726;8.964;2022-10-04T05:56:48;5.90;99.90
995;DHT22;486;48.726;8.964;2022-10-04T05:59:49;5.90;99.90
995;DHT22;486;48.726;8.964;2022-10-04T06:05:50;5.90;99.90
995;DHT22;486;48.726;8.964;2022-10-04T06:08:32;5.90;99.90
995;DHT22;486;48.726;8.964;2022-10-04T06:11:29;5.90;99.90
995;DHT22;486;48.726;8.964;2022-10-04T06:14:29;6.10;99.90
995;DHT22;486;48.726;8.964;2022-10-04T06:17:31;6.10;99.90
995;DHT22;486;48.726;8.964;2022-10-04T06:23:20;6.10;99.90
995;DHT22;486;48.726;8.964;2022-10-04T06:25:56;6.20;99.90
995;DHT22;486;48.726;8.964;2022-10-04T06:28:32;6.30;99.90
995;DHT22;486;48.726;8.964;2022-10-04T06:31:21;6.30;99.90
995;DHT22;486;48.726;8.964;2022-10-04T06:34:18;6.40;99.90
995;DHT22;486;48.726;8.964;2022-10-04T06:37:11;6.50;99.90
995;DHT22;486;48.726;8.964;2022-10-04T06:40:03;6.70;99.90
995;DHT22;486;48.726;8.964;2022-10-04T06:42:55;6.80;99.90
995;DHT22;486;48.726;8.964;2022-10-04T06:45:48;6.90;99.90
995;DHT22;486;48.726;8.964;2022-10-04T06:48:41;6.90;99.90
995;DHT22;486;48.726;8.964;2022-10-04T06:52:00;7.00;99.90
995;DHT22;486;48.726;8.964;2022-10-04T06:54:52;7.10;99.90
995;DHT22;486;48.726;8.964;2022-10-04T06:57:55;7.30;99.90
995;DHT22;486;48.726;8.964;2022-10-04T07:00:36;7.50;99.90
995;DHT22;486;48.726;8.964;2022-10-04T07:03:13;7.70;99.90
995;DHT22;486;48.726;8.964;2022-10-04T07:05:48;7.80;99.90
995;DHT22;486;48.726;8.964;2022-10-04T07:08:25;7.90;99.90
995;DHT22;486;48.726;8.964;2022-10-04T07:11:01;8.00;99.90
995;DHT22;486;48.726;8.964;2022-10-04T07:13:44;8.00;99.90
995;DHT22;486;48.726;8.964;2022-10-04T07:16:27;8.00;99.90
995;DHT22;486;48.726;8.964;2022-10-04T07:19:25;7.90;99.90
995;DHT22;486;48.726;8.964;2022-10-04T07:22:11;7.90;99.90
995;DHT22;486;48.726;8.964;2022-10-04T07:24:52;7.90;99.90
995;DHT22;486;48.726;8.964;2022-10-04T07:27:30;8.00;99.90
995;DHT22;486;48.726;8.964;2022-10-04T07:30:05;8.20;99.90
995;DHT22;486;48.726;8.964;2022-10-04T07:32:35;8.30;99.90
995;DHT22;486;48.726;8.964;2022-10-04T07:35:14;8.40;99.90
995;DHT22;486;48.726;8.964;2022-10-04T07:37:59;8.50;99.90
995;DHT22;486;48.726;8.964;2022-10-04T07:40:36;8.70;99.90
995;DHT22;486;48.726;8.964;2022-10-04T07:43:10;8.80;99.90
995;DHT22;486;48.726;8.964;2022-10-04T07:45:45;8.90;99.90
995;DHT22;486;48.726;8.964;2022-10-04T07:48:16;9.00;99.90
995;DHT22;486;48.726;8.964;2022-10-04T07:50:57;9.10;99.90
995;DHT22;486;48.726;8.964;2022-10-04T07:53:31;9.30;99.90
995;DHT22;486;48.726;8.964;2022-10-04T07:56:09;9.40;99.90
995;DHT22;486;48.726;8.964;2022-10-04T07:58:46;9.40;99.90
995;DHT22;486;48.726;8.964;2022-10-04T08:01:27;9.50;99.90
995;DHT22;486;48.726;8.964;2022-10-04T08:04:12;9.70;99.90
995;DHT22;486;48.726;8.964;2022-10-04T08:06:56;9.70;99.90
995;DHT22;486;48.726;8.964;2022-10-04T08:09:38;9.80;99.90
995;DHT22;486;48.726;8.964;2022-10-04T08:12:17;9.90;99.90
995;DHT22;486;48.726;8.964;2022-10-04T08:14:55;9.80;99.90
995;DHT22;486;48.726;8.964;2022-10-04T08:17:49;9.80;99.90
995;DHT22;486;48.726;8.964;2022-10-04T08:20:33;9.90;99.90
995;DHT22;486;48.726;8.964;2022-10-04T08:23:29;10.00;99.90
995;DHT22;486;48.726;8.964;2022-10-04T08:29:32;10.20;99.90
995;DHT22;486;48.726;8.964;2022-10-04T08:32:48;10.30;99.90
995;DHT22;486;48.726;8.964;2022-10-04T08:35:34;10.30;99.90
995;DHT22;486;48.726;8.964;2022-10-04T08:38:24;10.40;99.90
995;DHT22;486;48.726;8.964;2022-10-04T08:54:48;11.30;99.90
995;DHT22;486;48.726;8.964;2022-10-04T08:57:56;11.40;99.90
995;DHT22;486;48.726;8.964;2022-10-04T09:00:58;11.50;99.90
995;DHT22;486;48.726;8.964;2022-10-04T09:07:25;11.90;99.90
995;DHT22;486;48.726;8.964;2022-10-04T09:10:36;12.10;99.90
995;DHT22;486;48.726;8.964;2022-10-04T09:13:35;12.30;99.90
995;DHT22;486;48.726;8.964;2022-10-04T09:16:14;12.60;99.90
995;DHT22;486;48.726;8.964;2022-10-04T09:18:51;12.70;99.90
995;DHT22;486;48.726;8.964;2022-10-04T09:21:57;13.00;99.90
995;DHT22;486;48.726;8.964;2022-10-04T09:24:58;13.30;99.90
995;DHT22;486;48.726;8.964;2022-10-04T09:31:14;13.40;99.90
995;DHT22;486;48.726;8.964;2022-10-04T09:34:02;13.50;99.90
995;DHT22;486;48.726;8.964;2022-10-04T09:37:05;13.70;99.90
995;DHT22;486;48.726;8.964;2022-10-04T09:43:10;13.60;99.90
995;DHT22;486;48.726;8.964;2022-10-04T09:46:17;13.70;99.90
995;DHT22;486;48.726;8.964;2022-10-04T09:49:04;13.70;99.90
995;DHT22;486;48.726;8.964;2022-10-04T09:51:59;13.70;99.90
995;DHT22;486;48.726;8.964;2022-10-04T09:54:57;13.70;99.90
995;DHT22;486;48.726;8.964;2022-10-04T09:57:44;13.80;99.90
995;DHT22;486;48.726;8.964;2022-10-04T10:00:22;13.80;99.90
995;DHT22;486;48.726;8.964;2022-10-04T10:03:22;14.00;99.90
995;DHT22;486;48.726;8.964;2022-10-04T10:06:22;14.00;99.90
995;DHT22;486;48.726;8.964;2022-10-04T10:09:28;14.20;99.90
995;DHT22;486;48.726;8.964;2022-10-04T10:15:43;14.40;99.90
995;DHT22;486;48.726;8.964;2022-10-04T10:18:32;14.60;99.90
995;DHT22;486;48.726;8.964;2022-10-04T10:21:31;14.80;99.90
995;DHT22;486;48.726;8.964;2022-10-04T10:24:31;14.90;99.90
995;DHT22;486;48.726;8.964;2022-10-04T10:30:24;15.30;99.90
995;DHT22;486;48.726;8.964;2022-10-04T10:39:45;15.60;99.90
995;DHT22;486;48.726;8.964;2022-10-04T10:42:53;15.80;99.90
995;DHT22;486;48.726;8.964;2022-10-04T10:45:52;15.80;99.90
995;DHT22;486;48.726;8.964;2022-10-04T10:48:39;15.90;99.90
995;DHT22;486;48.726;8.964;2022-10-04T10:58:05;16.30;99.90
995;DHT22;486;48.726;8.964;2022-10-04T11:00:52;16.50;99.90
995;DHT22;486;48.726;8.964;2022-10-04T11:04:01;16.70;99.90
995;DHT22;486;48.726;8.964;2022-10-04T11:07:02;16.70;99.90
995;DHT22;486;48.726;8.964;2022-10-04T11:10:17;16.90;99.90
995;DHT22;486;48.726;8.964;2022-10-04T11:13:32;17.10;99.90
995;DHT22;486;48.726;8.964;2022-10-04T11:16:37;17.10;99.90
995;DHT22;486;48.726;8.964;2022-10-04T11:19:56;17.00;99.90
995;DHT22;486;48.726;8.964;2022-10-04T11:26:18;17.20;99.90
995;DHT22;486;48.726;8.964;2022-10-04T11:29:15;17.30;99.90
995;DHT22;486;48.726;8.964;2022-10-04T11:39:00;17.70;99.90
995;DHT22;486;48.726;8.964;2022-10-04T11:41:50;17.80;99.90
995;DHT22;486;48.726;8.964;2022-10-04T11:47:40;17.90;99.90
995;DHT22;486;48.726;8.964;2022-10-04T11:50:35;18.00;99.90
995;DHT22;486;48.726;8.964;2022-10-04T11:56:38;18.40;99.90
995;DHT22;486;48.726;8.964;2022-10-04T11:59:39;18.50;99.90
995;DHT22;486;48.726;8.964;2022-10-04T12:05:52;18.60;99.90
995;DHT22;486;48.726;8.964;2022-10-04T12:08:46;18.80;99.90
995;DHT22;486;48.726;8.964;2022-10-04T12:15:22;18.70;99.90
995;DHT22;486;48.726;8.964;2022-10-04T12:18:39;18.70;99.90
995;DHT22;486;48.726;8.964;2022-10-04T12:21:57;18.80;99.90
995;DHT22;486;48.726;8.964;2022-10-04T12:24:49;19.00;99.90
995;DHT22;486;48.726;8.964;2022-10-04T12:27:53;19.20;99.90
995;DHT22;486;48.726;8.964;2022-10-04T12:30:53;19.40;99.90
995;DHT22;486;48.726;8.964;2022-10-04T12:33:41;19.40;99.90
995;DHT22;486;48.726;8.964;2022-10-04T12:36:25;19.60;98.90
995;DHT22;486;48.726;8.964;2022-10-04T12:39:19;19.80;98.80
995;DHT22;486;48.726;8.964;2022-10-04T12:42:06;20.10;99.00
995;DHT22;486;48.726;8.964;2022-10-04T12:44:48;20.10;97.10
995;DHT22;486;48.726;8.964;2022-10-04T12:47:53;20.00;98.10
995;DHT22;486;48.726;8.964;2022-10-04T12:50:38;20.20;98.70
995;DHT22;486;48.726;8.964;2022-10-04T12:53:21;20.40;97.20
995;DHT22;486;48.726;8.964;2022-10-04T12:56:07;21.10;96.20
995;DHT22;486;48.726;8.964;2022-10-04T12:59:05;21.80;94.30
995;DHT22;486;48.726;8.964;2022-10-04T13:01:49;22.70;92.10
995;DHT22;486;48.726;8.964;2022-10-04T13:04:33;23.50;91.40
995;DHT22;486;48.726;8.964;2022-10-04T13:07:20;24.20;90.20
995;DHT22;486;48.726;8.964;2022-10-04T13:10:08;24.60;83.70
995;DHT22;486;48.726;8.964;2022-10-04T13:13:04;24.90;85.40
995;DHT22;486;48.726;8.964;2022-10-04T13:15:50;25.40;81.30
995;DHT22;486;48.726;8.964;2022-10-04T13:18:27;25.40;78.70
995;DHT22;486;48.726;8.964;2022-10-04T13:21:03;24.40;78.80
995;DHT22;486;48.726;8.964;2022-10-04T13:23:46;23.90;82.10
995;DHT22;486;48.726;8.964;2022-10-04T13:26:40;24.30;81.30
995;DHT22;486;48.726;8.964;2022-10-04T13:29:21;24.60;78.30
995;DHT22;486;48.726;8.964;2022-10-04T13:31:56;24.80;78.20
995;DHT22;486;48.726;8.964;2022-10-04T13:34:35;25.70;79.90
995;DHT22;486;48.726;8.964;2022-10-04T13:37:31;26.00;74.30
995;DHT22;486;48.726;8.964;2022-10-04T13:40:30;26.60;74.40
995;DHT22;486;48.726;8.964;2022-10-04T13:43:29;27.10;68.00
995;DHT22;486;48.726;8.964;2022-10-04T13:46:23;26.70;71.90
995;DHT22;486;48.726;8.964;2022-10-04T13:49:10;27.10;68.90
995;DHT22;486;48.726;8.964;2022-10-04T13:52:00;27.40;66.90
995;DHT22;486;48.726;8.964;2022-10-04T13:54:57;27.60;69.40
995;DHT22;486;48.726;8.964;2022-10-04T13:57:51;28.60;66.50
995;DHT22;486;48.726;8.964;2022-10-04T14:00:42;29.10;60.00
995;DHT22;486;48.726;8.964;2022-10-04T14:03:37;27.80;64.20
995;DHT22;486;48.726;8.964;2022-10-04T14:09:54;27.90;63.40
995;DHT22;486;48.726;8.964;2022-10-04T14:13:03;27.60;64.00
995;DHT22;486;48.726;8.964;2022-10-04T14:16:16;27.50;63.10
995;DHT22;486;48.726;8.964;2022-10-04T14:19:29;28.10;63.40
995;DHT22;486;48.726;8.964;2022-10-04T14:22:50;29.10;63.00
995;DHT22;486;48.726;8.964;2022-10-04T14:25:58;30.00;57.70
995;DHT22;486;48.726;8.964;2022-10-04T14:28:57;29.90;58.90
995;DHT22;486;48.726;8.964;2022-10-04T14:32:25;29.50;57.80
995;DHT22;486;48.726;8.964;2022-10-04T14:35:09;29.70;58.90
995;DHT22;486;48.726;8.964;2022-10-04T14:38:09;30.10;55.60
995;DHT22;486;48.726;8.964;2022-10-04T14:44:44;29.90;58.20
995;DHT22;486;48.726;8.964;2022-10-04T14:47:39;29.90;53.30
995;DHT22;486;48.726;8.964;2022-10-04T14:50:57;29.60;57.00
995;DHT22;486;48.726;8.964;2022-10-04T14:53:46;30.20;55.20
995;DHT22;486;48.726;8.964;2022-10-04T14:56:49;30.70;53.10
995;DHT22;486;48.726;8.964;2022-10-04T14:59:40;30.90;53.80
995;DHT22;486;48.726;8.964;2022-10-04T15:05:29;31.40;51.90
995;DHT22;486;48.726;8.964;2022-10-04T15:08:33;30.30;52.40
995;DHT22;486;48.726;8.964;2022-10-04T15:11:13;30.00;54.80
995;DHT22;486;48.726;8.964;2022-10-04T15:13:53;31.00;52.20
995;DHT22;486;48.726;8.964;2022-10-04T15:16:34;31.40;51.00
995;DHT22;486;48.726;8.964;2022-10-04T15:19:09;31.60;52.00
995;DHT22;486;48.726;8.964;2022-10-04T15:22:04;31.80;50.50
995;DHT22;486;48.726;8.964;2022-10-04T15:24:48;31.70;50.00
995;DHT22;486;48.726;8.964;2022-10-04T15:27:46;32.10;50.30
995;DHT22;486;48.726;8.964;2022-10-04T15:30:33;31.50;48.60
995;DHT22;486;48.726;8.964;2022-10-04T15:33:18;29.60;52.10
995;DHT22;486;48.726;8.964;2022-10-04T15:36:14;27.20;57.60
995;DHT22;486;48.726;8.964;2022-10-04T15:39:07;27.10;63.20
995;DHT22;486;48.726;8.964;2022-10-04T15:42:11;25.90;59.80
995;DHT22;486;48.726;8.964;2022-10-04T15:45:16;25.10;62.50
995;DHT22;486;48.726;8.964;2022-10-04T15:48:03;24.40;64.80
995;DHT22;486;48.726;8.964;2022-10-04T15:50:50;23.90;67.50
995;DHT22;486;48.726;8.964;2022-10-04T15:53:56;23.40;68.50
995;DHT22;486;48.726;8.964;2022-10-04T15:56:45;23.10;80.50
995;DHT22;486;48.726;8.964;2022-10-04T15:59:35;22.80;81.60
995;DHT22;486;48.726;8.964;2022-10-04T16:02:36;22.50;79.80
995;DHT22;486;48.726;8.964;2022-10-04T16:05:23;22.30;82.30
995;DHT22;486;48.726;8.964;2022-10-04T16:13:55;21.60;81.30
995;DHT22;486;48.726;8.964;2022-10-04T16:20:29;21.00;82.10
995;DHT22;486;48.726;8.964;2022-10-04T16:23:31;20.70;85.50
995;DHT22;486;48.726;8.964;2022-10-04T16:26:03;20.40;87.70
995;DHT22;486;48.726;8.964;2022-10-04T16:31:53;20.30;90.90
995;DHT22;486;48.726;8.964;2022-10-04T16:34:33;19.80;94.00
995;DHT22;486;48.726;8.964;2022-10-04T16:37:27;19.70;95.70
995;DHT22;486;48.726;8.964;2022-10-04T16:40:01;19.50;97.50
995;DHT22;486;48.726;8.964;2022-10-04T16:42:53;19.40;99.40
995;DHT22;486;48.726;8.964;2022-10-04T16:45:36;19.20;99.90
995;DHT22;486;48.726;8.964;2022-10-04T16:48:29;19.10;99.90
995;DHT22;486;48.726;8.964;2022-10-04T16:51:32;18.90;99.90
995;DHT22;486;48.726;8.964;2022-10-04T16:54:41;18.80;99.90
995;DHT22;486;48.726;8.964;2022-10-04T16:57:35;18.60;99.90
995;DHT22;486;48.726;8.964;2022-10-04T17:00:30;18.50;99.90
995;DHT22;486;48.726;8.964;2022-10-04T17:03:13;18.40;99.90
995;DHT22;486;48.726;8.964;2022-10-04T17:06:11;18.30;99.90
995;DHT22;486;48.726;8.964;2022-10-04T17:09:00;18.20;99.90
995;DHT22;486;48.726;8.964;2022-10-04T17:12:02;18.00;99.90
995;DHT22;486;48.726;8.964;2022-10-04T17:17:57;17.60;99.90
995;DHT22;486;48.726;8.964;2022-10-04T17:20:44;17.50;99.90
995;DHT22;486;48.726;8.964;2022-10-04T17:23:37;17.40;99.90
995;DHT22;486;48.726;8.964;2022-10-04T17:26:22;17.30;99.90
995;DHT22;486;48.726;8.964;2022-10-04T17:29:13;17.10;99.90
995;DHT22;486;48.726;8.964;2022-10-04T17:31:51;16.90;99.90
995;DHT22;486;48.726;8.964;2022-10-04T17:34:34;16.80;99.90
995;DHT22;486;48.726;8.964;2022-10-04T17:37:21;16.70;99.90
995;DHT22;486;48.726;8.964;2022-10-04T17:40:06;16.60;99.90
995;DHT22;486;48.726;8.964;2022-10-04T17:42:57;16.50;99.90
995;DHT22;486;48.726;8.964;2022-10-04T17:48:42;16.40;99.90
995;DHT22;486;48.726;8.964;2022-10-04T17:51:38;16.30;99.90
995;DHT22;486;48.726;8.964;2022-10-04T17:54:23;16.20;99.90
995;DHT22;486;48.726;8.964;2022-10-04T17:57:22;16.00;99.90
995;DHT22;486;48.726;8.964;2022-10-04T18:00:06;15.90;99.90
995;DHT22;486;48.726;8.964;2022-10-04T18:03:01;15.80;99.90
995;DHT22;486;48.726;8.964;2022-10-04T18:05:48;15.80;99.90
995;DHT22;486;48.726;8.964;2022-10-04T18:08:27;15.70;99.90
995;DHT22;486;48.726;8.964;2022-10-04T18:11:14;15.60;99.90
995;DHT22;486;48.726;8.964;2022-10-04T18:13:50;15.60;99.90
995;DHT22;486;48.726;8.964;2022-10-04T18:16:28;15.50;99.90
995;DHT22;486;48.726;8.964;2022-10-04T18:19:28;15.40;99.90
995;DHT22;486;48.726;8.964;2022-10-04T18:22:09;15.40;99.90
995;DHT22;486;48.726;8.964;2022-10-04T18:24:41;15.20;99.90
995;DHT22;486;48.726;8.964;2022-10-04T18:27:17;15.20;99.90
995;DHT22;486;48.726;8.964;2022-10-04T18:30:10;15.10;99.90
995;DHT22;486;48.726;8.964;2022-10-04T18:32:43;15.00;99.90
995;DHT22;486;48.726;8.964;2022-10-04T18:35:23;14.90;99.90
995;DHT22;486;48.726;8.964;2022-10-04T18:37:55;14.70;99.90
995;DHT22;486;48.726;8.964;2022-10-04T18:40:26;14.70;99.90
995;DHT22;486;48.726;8.964;2022-10-04T18:43:00;14.60;99.90
995;DHT22;486;48.726;8.964;2022-10-04T18:45:30;14.60;99.90
995;DHT22;486;48.726;8.964;2022-10-04T18:48:13;14.50;99.90
995;DHT22;486;48.726;8.964;2022-10-04T18:50:47;14.40;99.90
995;DHT22;486;48.726;8.964;2022-10-04T18:53:33;14.20;99.90
995;DHT22;486;48.726;8.964;2022-10-04T18:56:09;14.10;99.90
995;DHT22;486;48.726;8.964;2022-10-04T18:58:54;14.10;99.90
995;DHT22;486;48.726;8.964;2022-10-04T19:01:53;14.00;99.90
995;DHT22;486;48.726;8.964;2022-10-04T19:04:42;13.90;99.90
995;DHT22;486;48.726;8.964;2022-10-04T19:07:21;13.90;99.90
995;DHT22;486;48.726;8.964;2022-10-04T19:10:15;13.80;99.90
995;DHT22;486;48.726;8.964;2022-10-04T19:16:11;13.70;99.90
995;DHT22;486;48.726;8.964;2022-10-04T19:18:57;13.60;99.90
995;DHT22;486;48.726;8.964;2022-10-04T19:21:43;13.60;99.90
995;DHT22;486;48.726;8.964;2022-10-04T19:24:39;13.50;99.90
995;DHT22;486;48.726;8.964;2022-10-04T19:27:25;13.50;99.90
995;DHT22;486;48.726;8.964;2022-10-04T19:30:13;13.40;99.90
995;DHT22;486;48.726;8.964;2022-10-04T19:33:02;13.30;99.90
995;DHT22;486;48.726;8.964;2022-10-04T19:35:50;13.30;99.90
995;DHT22;486;48.726;8.964;2022-10-04T19:38:42;13.20;99.90
995;DHT22;486;48.726;8.964;2022-10-04T19:41:29;13.10;99.90
995;DHT22;486;48.726;8.964;2022-10-04T19:44:16;13.00;99.90
995;DHT22;486;48.726;8.964;2022-10-04T19:46:57;12.90;99.90
995;DHT22;486;48.726;8.964;2022-10-04T19:49:36;12.90;99.90
995;DHT22;486;48.726;8.964;2022-10-04T19:52:19;12.80;99.90
995;DHT22;486;48.726;8.964;2022-10-04T19:54:56;12.80;99.90
995;DHT22;486;48.726;8.964;2022-10-04T19:57:35;12.80;99.90
995;DHT22;486;48.726;8.964;2022-10-04T20:00:10;12.70;99.90
995;DHT22;486;48.726;8.964;2022-10-04T20:02:41;12.70;99.90
995;DHT22;486;48.726;8.964;2022-10-04T20:05:13;12.70;99.90
995;DHT22;486;48.726;8.964;2022-10-04T20:07:47;12.60;99.90
995;DHT22;486;48.726;8.964;2022-10-04T20:10:31;12.60;99.90
995;DHT22;486;48.726;8.964;2022-10-04T20:13:15;12.60;99.90
995;DHT22;486;48.726;8.964;2022-10-04T20:15:51;12.50;99.90
995;DHT22;486;48.726;8.964;2022-10-04T20:18:50;12.40;99.90
995;DHT22;486;48.726;8.964;2022-10-04T20:21:27;12.40;99.90
995;DHT22;486;48.726;8.964;2022-10-04T20:23:58;12.40;99.90
995;DHT22;486;48.726;8.964;2022-10-04T20:26:48;12.40;99.90
995;DHT22;486;48.726;8.964;2022-10-04T20:32:56;12.30;99.90
995;DHT22;486;48.726;8.964;2022-10-04T20:38:51;12.20;99.90
995;DHT22;486;48.726;8.964;2022-10-04T20:41:42;12.10;99.90
995;DHT22;486;48.726;8.964;2022-10-04T20:44:53;12.10;99.90
995;DHT22;486;48.726;8.964;2022-10-04T20:47:34;12.00;99.90
995;DHT22;486;48.726;8.964;2022-10-04T20:50:18;12.00;99.90
995;DHT22;486;48.726;8.964;2022-10-04T20:52:50;12.00;99.90
995;DHT22;486;48.726;8.964;2022-10-04T20:55:25;12.00;99.90
995;DHT22;486;48.726;8.964;2022-10-04T20:57:58;12.00;99.90
995;DHT22;486;48.726;8.964;2022-10-04T21:00:30;12.00;99.90
995;DHT22;486;48.726;8.964;2022-10-04T21:03:16;12.00;99.90
995;DHT22;486;48.726;8.964;2022-10-04T21:05:59;11.90;99.90
995;DHT22;486;48.726;8.964;2022-10-04T21:08:30;11.80;99.90
995;DHT22;486;48.726;8.964;2022-10-04T21:11:20;11.80;99.90
995;DHT22;486;48.726;8.964;2022-10-04T21:13:51;11.80;99.90
995;DHT22;486;48.726;8.964;2022-10-04T21:17:34;11.80;99.90
995;DHT22;486;48.726;8.964;2022-10-04T21:20:13;11.70;99.90
995;DHT22;486;48.726;8.964;2022-10-04T21:22:43;11.70;99.90
995;DHT22;486;48.726;8.964;2022-10-04T21:25:39;11.60;99.90
995;DHT22;486;48.726;8.964;2022-10-04T21:28:25;11.50;99.90
995;DHT22;486;48.726;8.964;2022-10-04T21:30:59;11.30;99.90
995;DHT22;486;48.726;8.964;2022-10-04T21:33:32;11.20;99.90
995;DHT22;486;48.726;8.964;2022-10-04T21:36:05;11.20;99.90
995;DHT22;486;48.726;8.964;2022-10-04T21:38:34;11.20;99.90
995;DHT22;486;48.726;8.964;2022-10-04T21:41:04;11.20;99.90
995;DHT22;486;48.726;8.964;2022-10-04T21:43:33;11.20;99.90
995;DHT22;486;48.726;8.964;2022-10-04T21:46:02;11.20;99.90
995;DHT22;486;48.726;8.964;2022-10-04T21:48:31;11.20;99.90
995;DHT22;486;48.726;8.964;2022-10-04T21:51:00;11.20;99.90
995;DHT22;486;48.726;8.964;2022-10-04T21:53:32;11.20;99.90
995;DHT22;486;48.726;8.964;2022-10-04T21:56:01;11.20;99.90
995;DHT22;486;48.726;8.964;2022-10-04T21:58:32;11.20;99.90
995;DHT22;486;48.726;8.964;2022-10-04T22:01:01;11.20;99.90
995;DHT22;486;48.726;8.964;2022-10-04T22:03:30;11.20;99.90
995;DHT22;486;48.726;8.964;2022-10-04T22:05:59;11.20;99.90
995;DHT22;486;48.726;8.964;2022-10-04T22:08:31;11.10;99.90
995;DHT22;486;48.726;8.964;2022-10-04T22:11:00;11.10;99.90
995;DHT22;486;48.726;8.964;2022-10-04T22:13:29;11.00;99.90
995;DHT22;486;48.726;8.964;2022-10-04T22:15:58;10.90;99.90
995;DHT22;486;48.726;8.964;2022-10-04T22:18:27;10.90;99.90
995;DHT22;486;48.726;8.964;2022-10-04T22:20:57;10.80;99.90
995;DHT22;486;48.726;8.964;2022-10-04T22:23:27;10.80;99.90
995;DHT22;486;48.726;8.964;2022-10-04T22:26:12;10.70;99.90
995;DHT22;486;48.726;8.964;2022-10-04T22:28:45;10.60;99.90
995;DHT22;486;48.726;8.964;2022-10-04T22:31:16;10.40;99.90
995;DHT22;486;48.726;8.964;2022-10-04T22:33:48;10.40;99.90
995;DHT22;486;48.726;8.964;2022-10-04T22:36:20;10.40;99.90
995;DHT22;486;48.726;8.964;2022-10-04T22:38:55;10.40;99.90
995;DHT22;486;48.726;8.964;2022-10-04T22:41:31;10.40;99.90
995;DHT22;486;48.726;8.964;2022-10-04T22:44:08;10.50;99.90
995;DHT22;486;48.726;8.964;2022-10-04T22:46:41;10.50;99.90
995;DHT22;486;48.726;8.964;2022-10-04T22:49:16;10.60;99.90
995;DHT22;486;48.726;8.964;2022-10-04T22:51:48;10.70;99.90
995;DHT22;486;48.726;8.964;2022-10-04T22:54:22;10.70;99.90
995;DHT22;486;48.726;8.964;2022-10-04T22:56:56;10.80;99.90
995;DHT22;486;48.726;8.964;2022-10-04T22:59:33;10.80;99.90
995;DHT22;486;48.726;8.964;2022-10-04T23:02:07;10.80;99.90
995;DHT22;486;48.726;8.964;2022-10-04T23:04:43;10.80;99.90
995;DHT22;486;48.726;8.964;2022-10-04T23:07:17;10.80;99.90
995;DHT22;486;48.726;8.964;2022-10-04T23:09:46;10.80;99.90
995;DHT22;486;48.726;8.964;2022-10-04T23:12:18;10.80;99.90
995;DHT22;486;48.726;8.964;2022-10-04T23:14:47;10.80;99.90
995;DHT22;486;48.726;8.964;2022-10-04T23:17:20;10.80;99.90
995;DHT22;486;48.726;8.964;2022-10-04T23:19:52;10.80;99.90
995;DHT22;486;48.726;8.964;2022-10-04T23:22:26;10.90;99.90
995;DHT22;486;48.726;8.964;2022-10-04T23:24:56;10.80;99.90
995;DHT22;486;48.726;8.964;2022-10-04T23:27:28;10.80;99.90
995;DHT22;486;48.726;8.964;2022-10-04T23:30:00;10.70;99.90
995;DHT22;486;48.726;8.964;2022-10-04T23:32:30;10.70;99.90
995;DHT22;486;48.726;8.964;2022-10-04T23:34:59;10.70;99.90
995;DHT22;486;48.726;8.964;2022-10-04T23:37:30;10.70;99.90
995;DHT22;486;48.726;8.964;2022-10-04T23:40:00;10.70;99.90
995;DHT22;486;48.726;8.964;2022-10-04T23:42:32;10.70;99.90
995;DHT22;486;48.726;8.964;2022-10-04T23:45:02;10.80;99.90
995;DHT22;486;48.726;8.964;2022-10-04T23:47:41;10.80;99.90